createdAt,value
2022-09-09T00:03:25.060Z,18.10
2022-09-09T00:08:32.891Z,18.10
2022-09-09T00:13:55.245Z,10.60
2022-09-09T00:19:18.331Z,16.30
2022-09-09T00:24:31.017Z,19.30
2022-09-09T00:29:56.340Z,22.60
2022-09-09T00:35:16.291Z,24.80
2022-09-09T00:40:29.695Z,23.40
2022-09-09T00:46:00.711Z,26.20
2022-09-09T00:51:15.676Z,27.80
2022-09-09T00:56:23.903Z,27.70
2022-09-09T01:01:25.929Z,29.60
2022-09-09T01:06:32.211Z,29.90
2022-09-09T01:11:52.278Z,27.40
2022-09-09T01:17:00.315Z,27.50
2022-09-09T01:22:31.110Z,30.10
2022-09-09T01:27:36.359Z,30.70
2022-09-09T01:32:47.473Z,30.50
2022-09-09T01:37:49.430Z,29.60
2022-09-09T01:42:51.726Z,34.70
2022-09-09T01:47:53.925Z,33.30
2022-09-09T01:53:05.212Z,31.10
2022-09-09T01:58:19.509Z,31.70
2022-09-09T02:03:28.970Z,29.40
2022-09-09T02:13:53.360Z,27.70
2022-09-09T02:19:07.255Z,30.60
2022-09-09T02:24:16.839Z,29.20
2022-09-09T02:29:29.910Z,30.00
2022-09-09T02:34:37.175Z,27.00
2022-09-09T02:39:39.013Z,27.80
2022-09-09T02:45:00.877Z,25.90
2022-09-09T02:50:21.578Z,28.00
2022-09-09T03:00:38.868Z,26.20
2022-09-09T03:05:53.297Z,26.00
2022-09-09T03:10:55.433Z,28.80
2022-09-09T03:15:56.816Z,29.70
2022-09-09T03:20:59.915Z,28.50
2022-09-09T03:26:01.292Z,29.20
2022-09-09T03:31:11.008Z,28.60
2022-09-09T03:36:15.586Z,28.40
2022-09-09T03:41:18.051Z,28.60
2022-09-09T03:46:21.827Z,31.80
2022-09-09T03:51:23.051Z,35.60
2022-09-09T03:56:25.321Z,36.80
2022-09-09T04:01:28.767Z,35.70
2022-09-09T04:06:30.415Z,37.80
2022-09-09T04:11:31.766Z,48.10
2022-09-09T04:16:34.188Z,51.90
2022-09-09T04:21:35.380Z,51.10
2022-09-09T04:26:37.757Z,56.00
2022-09-09T04:31:42.303Z,53.10
2022-09-09T04:36:43.830Z,48.50
2022-09-09T04:41:44.977Z,60.20
2022-09-09T04:46:46.279Z,61.70
2022-09-09T04:51:49.925Z,59.60
2022-09-09T04:56:51.788Z,56.50
2022-09-09T05:01:55.469Z,55.50
2022-09-09T05:06:57.387Z,54.10
2022-09-09T05:11:58.717Z,56.50
2022-09-09T05:17:04.351Z,49.80
2022-09-09T05:22:05.498Z,53.10
2022-09-09T05:27:12.802Z,52.10
2022-09-09T05:32:15.871Z,51.50
2022-09-09T05:37:19.025Z,48.20
2022-09-09T05:42:20.695Z,50.50
2022-09-09T05:47:22.111Z,46.70
2022-09-09T05:52:24.145Z,45.40
2022-09-09T05:57:25.520Z,40.10
2022-09-09T06:02:26.845Z,39.70
2022-09-09T06:07:28.199Z,40.60
2022-09-09T06:12:29.490Z,39.70
2022-09-09T06:17:30.685Z,36.60
2022-09-09T06:22:42.863Z,41.30
2022-09-09T06:27:50.379Z,36.10
2022-09-09T06:32:58.502Z,35.70
2022-09-09T06:43:15.901Z,30.60
2022-09-09T06:48:22.698Z,29.60
2022-09-09T06:53:24.290Z,28.20
2022-09-09T06:58:25.476Z,22.70
2022-09-09T07:03:28.017Z,19.70
2022-09-09T07:08:29.662Z,20.10
2022-09-09T07:13:31.385Z,14.70
2022-09-09T07:18:33.846Z,14.30
2022-09-09T07:23:36.578Z,13.00
2022-09-09T07:28:38.949Z,14.00
2022-09-09T07:33:45.608Z,14.00
2022-09-09T07:38:56.653Z,7.20
2022-09-09T07:43:58.704Z,6.40
2022-09-09T07:49:01.297Z,6.30
2022-09-09T07:54:06.467Z,5.40
2022-09-09T07:59:09.854Z,4.50
2022-09-09T08:04:17.907Z,4.10
2022-09-09T08:09:20.912Z,4.60
2022-09-09T08:14:23.389Z,4.80
2022-09-09T08:19:25.012Z,4.30
2022-09-09T08:24:26.924Z,4.10
2022-09-09T08:29:28.948Z,4.10
2022-09-09T08:34:31.948Z,3.90
2022-09-09T08:39:35.629Z,3.30
2022-09-09T08:44:55.380Z,3.60
2022-09-09T08:50:15.913Z,4.00
2022-09-09T08:55:25.537Z,3.70
2022-09-09T09:00:41.317Z,3.00
2022-09-09T09:05:51.271Z,4.00
2022-09-09T09:11:03.324Z,3.60
2022-09-09T10:32:05.125Z,3.10
2022-09-09T10:37:38.367Z,2.30
2022-09-09T10:42:41.399Z,2.80
2022-09-09T10:47:59.250Z,3.30
2022-09-09T10:53:14.219Z,2.40
2022-09-09T10:58:25.067Z,2.10
2022-09-09T11:03:30.338Z,3.00
2022-09-09T11:08:56.479Z,3.30
2022-09-09T11:14:28.350Z,3.20
2022-09-09T11:19:39.811Z,2.70
2022-09-09T11:24:51.724Z,2.50
2022-09-09T11:30:13.875Z,2.20
2022-09-09T11:35:36.832Z,1.40
2022-09-09T11:40:39.396Z,1.70
2022-09-09T11:45:43.421Z,1.90
2022-09-09T11:51:10.116Z,2.00
2022-09-09T11:56:15.552Z,1.20
2022-09-09T12:01:31.256Z,1.60
2022-09-09T12:06:42.439Z,2.30
2022-09-09T12:11:44.218Z,1.60
2022-09-09T12:16:45.946Z,1.80
2022-09-09T12:21:50.793Z,1.90
2022-09-09T12:27:11.419Z,1.50
2022-09-09T12:32:19.705Z,1.40
2022-09-09T12:37:42.088Z,0.90
2022-09-09T12:42:43.841Z,1.10
2022-09-09T12:47:54.438Z,1.60
2022-09-09T12:52:59.677Z,1.60
2022-09-09T12:58:07.071Z,1.00
2022-09-09T13:03:21.126Z,1.80
2022-09-09T13:08:22.985Z,1.10
2022-09-09T13:13:31.061Z,1.60
2022-09-09T13:18:41.348Z,1.20
2022-09-09T13:23:49.129Z,1.30
2022-09-09T13:28:51.647Z,1.50
2022-09-09T13:33:54.345Z,1.30
2022-09-09T13:38:58.367Z,2.20
2022-09-09T13:44:01.551Z,1.30
2022-09-09T13:49:27.811Z,1.50
2022-09-09T13:54:31.958Z,1.50
2022-09-09T14:04:56.452Z,2.00
2022-09-09T14:15:15.558Z,1.50
2022-09-09T14:20:30.429Z,1.80
2022-09-09T14:25:32.888Z,1.20
2022-09-09T14:30:34.657Z,1.30
2022-09-09T14:35:37.234Z,1.50
2022-09-09T14:40:39.442Z,1.80
2022-09-09T14:45:41.397Z,1.70
2022-09-09T14:50:43.908Z,1.50
2022-09-09T14:55:47.731Z,2.10
2022-09-09T15:00:49.463Z,1.60
2022-09-09T15:05:52.309Z,1.30
2022-09-09T15:11:13.389Z,1.90
2022-09-09T15:16:26.168Z,2.60
2022-09-09T15:21:31.279Z,2.50
2022-09-09T15:26:33.186Z,2.10
2022-09-09T15:31:35.507Z,1.80
2022-09-09T15:36:38.214Z,2.00
2022-09-09T15:41:40.773Z,2.00
2022-09-09T15:46:46.131Z,2.30
2022-09-09T15:51:52.666Z,4.80
2022-09-09T15:56:57.122Z,3.10
2022-09-09T16:02:02.546Z,2.20
2022-09-09T16:07:06.452Z,2.40
2022-09-09T16:12:10.722Z,2.60
2022-09-09T16:17:12.660Z,2.70
2022-09-09T16:22:16.348Z,2.50
2022-09-09T16:27:26.551Z,1.60
2022-09-09T16:32:41.735Z,3.10
2022-09-09T16:37:43.992Z,2.80
2022-09-09T16:42:45.700Z,2.50
2022-09-09T16:48:07.426Z,2.40
2022-09-09T16:53:22.844Z,2.40
2022-09-09T16:58:24.907Z,3.50
2022-09-09T17:03:27.077Z,3.80
2022-09-09T17:08:30.706Z,4.20
2022-09-09T17:13:32.851Z,4.70
2022-09-09T17:18:34.944Z,5.00
2022-09-09T17:23:38.998Z,5.10
2022-09-09T17:28:42.399Z,4.90
2022-09-09T18:17:14.840Z,3.70
2022-09-09T18:22:19.976Z,4.80
2022-09-09T18:27:22.951Z,7.90
2022-09-09T18:32:45.380Z,8.40
2022-09-09T18:38:00.441Z,11.40
2022-09-09T18:43:02.812Z,14.20
2022-09-09T18:48:05.686Z,15.00
2022-09-09T18:53:07.489Z,14.40
2022-09-09T18:58:09.276Z,11.90
2022-09-09T19:03:11.202Z,11.50
2022-09-09T19:08:13.107Z,16.00
2022-09-09T19:13:15.372Z,14.60
2022-09-09T19:18:17.143Z,14.30
2022-09-09T19:23:19.457Z,19.50
2022-09-09T19:28:21.756Z,19.60
2022-09-09T19:33:24.014Z,18.10
2022-09-09T19:38:26.639Z,17.10
2022-09-09T19:43:28.577Z,16.30
2022-09-09T19:48:31.861Z,21.10
2022-09-09T19:53:38.168Z,18.10
2022-09-09T19:58:41.243Z,15.50
2022-09-09T20:03:44.936Z,17.50
2022-09-09T20:08:48.155Z,15.80
2022-09-09T20:13:50.816Z,18.50
2022-09-09T20:18:56.798Z,17.60
2022-09-09T20:24:05.970Z,19.80
2022-09-09T20:29:15.747Z,18.90
2022-09-09T20:34:22.278Z,19.70
2022-09-09T20:39:24.299Z,18.30
2022-09-09T20:44:26.360Z,26.90
2022-09-09T20:49:29.473Z,25.90
2022-09-09T20:54:31.441Z,20.80
2022-09-09T20:59:34.785Z,23.60
2022-09-09T21:04:38.187Z,20.40
2022-09-09T21:09:41.207Z,20.70
2022-09-09T21:14:42.931Z,20.00
2022-09-09T21:19:45.375Z,17.60
2022-09-09T21:24:47.842Z,17.10
2022-09-09T21:29:50.116Z,18.90
2022-09-09T21:34:51.986Z,18.80
2022-09-09T21:39:53.960Z,15.50
2022-09-09T21:44:55.980Z,15.80
2022-09-09T21:49:57.900Z,16.20
2022-09-09T21:54:59.640Z,15.30
2022-09-09T22:00:02.010Z,15.30
2022-09-09T22:05:04.477Z,16.00
2022-09-09T22:10:07.349Z,15.30
2022-09-09T22:15:09.631Z,16.30
2022-09-09T22:20:12.369Z,15.10
2022-09-09T22:25:14.756Z,22.40
2022-09-09T22:30:16.622Z,20.40
2022-09-09T22:35:31.564Z,19.00
2022-09-09T22:40:37.540Z,15.90
2022-09-09T22:45:39.281Z,16.10
2022-09-09T22:50:42.603Z,15.70
2022-09-09T22:55:58.557Z,15.60
2022-09-09T23:01:26.403Z,14.30
2022-09-09T23:06:43.519Z,15.70
2022-09-09T23:11:47.034Z,14.70
2022-09-09T23:16:48.969Z,11.30
2022-09-09T23:21:50.883Z,8.90
2022-09-09T23:26:53.085Z,9.30
2022-09-09T23:31:54.994Z,8.70
2022-09-09T23:36:57.665Z,7.00
2022-09-09T23:42:02.330Z,8.70
2022-09-09T23:47:26.298Z,9.00
2022-09-09T23:52:37.155Z,7.40
2022-09-09T23:57:39.048Z,6.10
